createdAt,value
2022-10-13T00:00:28.809Z,2.42
2022-10-13T00:02:55.301Z,2.78
2022-10-13T00:05:21.726Z,2.85
2022-10-13T00:07:48.154Z,1.95
2022-10-13T00:10:14.590Z,2.67
2022-10-13T00:12:41.019Z,2.25
2022-10-13T00:15:08.778Z,2.78
2022-10-13T00:17:38.987Z,2.88
2022-10-13T00:20:06.439Z,2.42
2022-10-13T00:22:33.039Z,2.53
2022-10-13T00:24:59.435Z,1.40
2022-10-13T00:27:25.879Z,2.00
2022-10-13T00:29:52.319Z,2.40
2022-10-13T00:32:19.236Z,2.45
2022-10-13T00:34:46.045Z,2.53
2022-10-13T00:37:12.480Z,1.67
2022-10-13T00:39:38.893Z,1.98
2022-10-13T00:42:07.183Z,2.20
2022-10-13T00:45:04.884Z,2.58
2022-10-13T00:47:36.939Z,1.67
2022-10-13T00:50:04.863Z,1.50
2022-10-13T00:52:32.295Z,2.08
2022-10-13T00:54:59.998Z,3.67
2022-10-13T00:57:26.748Z,1.85
2022-10-13T00:59:53.217Z,2.05
2022-10-13T01:02:19.979Z,2.55
2022-10-13T01:04:47.806Z,2.50
2022-10-13T01:07:17.411Z,1.80
2022-10-13T01:09:44.168Z,2.47
2022-10-13T01:12:32.893Z,2.13
2022-10-13T01:15:11.773Z,2.25
2022-10-13T01:17:57.074Z,1.80
2022-10-13T01:20:51.057Z,1.92
2022-10-13T01:23:22.233Z,1.90
2022-10-13T01:25:48.582Z,2.05
2022-10-13T01:28:22.231Z,2.33
2022-10-13T01:30:54.992Z,2.42
2022-10-13T01:33:48.328Z,2.03
2022-10-13T01:39:09.401Z,3.10
2022-10-13T01:41:39.951Z,2.17
2022-10-13T01:44:16.203Z,2.65
2022-10-13T01:46:43.907Z,1.73
2022-10-13T01:49:13.230Z,2.72
2022-10-13T01:51:40.847Z,2.67
2022-10-13T01:54:07.257Z,1.70
2022-10-13T01:56:33.702Z,3.00
2022-10-13T01:59:04.960Z,2.13
2022-10-13T02:01:55.622Z,1.73
2022-10-13T02:04:40.745Z,2.05
2022-10-13T02:07:25.704Z,2.15
2022-10-13T02:09:59.908Z,2.83
2022-10-13T02:12:50.863Z,2.42
2022-10-13T02:15:22.090Z,3.03
2022-10-13T02:17:49.361Z,3.92
2022-10-13T02:20:17.922Z,4.00
2022-10-13T02:22:47.569Z,2.50
2022-10-13T02:25:14.047Z,2.88
2022-10-13T02:27:40.858Z,2.05
2022-10-13T02:30:07.855Z,1.67
2022-10-13T02:32:34.275Z,2.17
2022-10-13T02:35:00.738Z,1.65
2022-10-13T02:37:27.193Z,1.67
2022-10-13T02:39:53.669Z,2.13
2022-10-13T02:42:20.369Z,2.22
2022-10-13T02:44:46.937Z,2.03
2022-10-13T02:47:13.420Z,1.50
2022-10-13T02:49:39.861Z,1.70
2022-10-13T02:52:06.945Z,3.83
2022-10-13T02:54:33.356Z,2.67
2022-10-13T02:56:59.770Z,2.15
2022-10-13T02:59:26.182Z,1.48
2022-10-13T03:01:52.586Z,1.95
2022-10-13T03:04:18.975Z,1.75
2022-10-13T03:06:45.474Z,1.55
2022-10-13T03:09:11.923Z,2.17
2022-10-13T03:11:38.463Z,2.30
2022-10-13T03:14:04.900Z,1.77
2022-10-13T03:16:31.334Z,2.40
2022-10-13T03:18:57.774Z,1.70
2022-10-13T03:21:24.216Z,2.10
2022-10-13T03:23:50.655Z,2.17
2022-10-13T03:26:17.341Z,1.60
2022-10-13T03:28:43.890Z,1.90
2022-10-13T03:31:11.573Z,2.08
2022-10-13T03:33:39.358Z,2.00
2022-10-13T03:36:07.394Z,1.65
2022-10-13T03:38:34.889Z,2.25
2022-10-13T03:41:12.341Z,2.10
2022-10-13T03:43:39.825Z,1.60
2022-10-13T03:46:07.863Z,3.08
2022-10-13T03:48:35.963Z,1.63
2022-10-13T03:51:11.537Z,1.42
2022-10-13T03:53:38.002Z,2.20
2022-10-13T03:56:05.742Z,2.60
2022-10-13T03:58:32.299Z,2.65
2022-10-13T04:01:04.549Z,1.52
2022-10-13T04:03:33.434Z,2.00
2022-10-13T04:06:03.871Z,1.77
2022-10-13T04:08:31.772Z,1.70
2022-10-13T04:11:00.199Z,2.08
2022-10-13T04:13:26.621Z,2.38
2022-10-13T04:15:53.285Z,2.35
2022-10-13T04:18:19.736Z,3.17
2022-10-13T04:20:46.173Z,2.42
2022-10-13T04:23:12.569Z,2.25
2022-10-13T04:25:39.344Z,2.55
2022-10-13T04:28:06.935Z,1.52
2022-10-13T04:30:35.033Z,1.92
2022-10-13T04:33:02.340Z,1.77
2022-10-13T04:35:29.225Z,2.58
2022-10-13T04:37:57.966Z,2.00
2022-10-13T04:40:25.497Z,2.35
2022-10-13T04:42:52.531Z,1.70
2022-10-13T04:45:18.989Z,2.30
2022-10-13T04:47:45.424Z,2.60
2022-10-13T04:50:11.902Z,2.03
2022-10-13T04:52:38.286Z,2.88
2022-10-13T04:55:05.176Z,2.13
2022-10-13T04:57:31.631Z,2.67
2022-10-13T04:59:58.081Z,2.47
2022-10-13T05:02:24.553Z,3.13
2022-10-13T05:04:50.974Z,2.25
2022-10-13T05:07:18.517Z,2.72
2022-10-13T05:09:45.620Z,1.65
2022-10-13T05:12:12.112Z,2.78
2022-10-13T05:14:38.589Z,2.55
2022-10-13T05:17:05.089Z,1.48
2022-10-13T05:19:31.675Z,2.33
2022-10-13T05:21:58.087Z,1.98
2022-10-13T05:24:36.239Z,2.20
2022-10-13T05:27:08.655Z,2.38
2022-10-13T05:29:35.398Z,2.25
2022-10-13T05:32:01.913Z,2.38
2022-10-13T05:34:28.400Z,2.45
2022-10-13T05:36:54.838Z,1.58
2022-10-13T05:39:21.315Z,2.17
2022-10-13T05:41:47.700Z,2.08
2022-10-13T05:44:14.518Z,2.13
2022-10-13T05:46:41.011Z,2.17
2022-10-13T05:49:07.478Z,1.60
2022-10-13T05:51:36.616Z,1.52
2022-10-13T05:54:30.081Z,2.00
2022-10-13T05:57:05.303Z,2.15
2022-10-13T05:59:36.899Z,2.60
2022-10-13T06:02:06.306Z,2.10
2022-10-13T06:04:43.343Z,2.35
2022-10-13T06:07:10.109Z,2.03
2022-10-13T06:09:38.014Z,1.88
2022-10-13T06:12:05.656Z,3.97
2022-10-13T06:14:32.143Z,2.20
2022-10-13T06:16:58.933Z,2.33
2022-10-13T06:19:25.421Z,2.65
2022-10-13T06:21:52.028Z,2.08
2022-10-13T06:24:20.924Z,2.78
2022-10-13T06:26:47.371Z,1.60
2022-10-13T06:29:13.845Z,1.58
2022-10-13T06:31:40.304Z,3.72
2022-10-13T06:34:07.833Z,2.15
2022-10-13T06:36:34.301Z,1.80
2022-10-13T06:39:00.709Z,2.60
2022-10-13T06:41:27.159Z,1.85
2022-10-13T06:43:53.583Z,2.00
2022-10-13T06:46:20.554Z,2.35
2022-10-13T06:48:49.976Z,1.85
2022-10-13T06:51:16.601Z,2.83
2022-10-13T06:53:43.084Z,2.53
2022-10-13T06:56:09.709Z,1.85
2022-10-13T06:58:37.381Z,1.70
2022-10-13T07:01:05.216Z,2.40
2022-10-13T07:03:31.792Z,1.60
2022-10-13T07:06:05.879Z,3.72
2022-10-13T07:08:34.114Z,3.60
2022-10-13T07:11:08.040Z,4.60
2022-10-13T07:13:37.661Z,3.05
2022-10-13T07:16:06.781Z,2.63
2022-10-13T07:18:33.333Z,2.63
2022-10-13T07:21:00.594Z,6.80
2022-10-13T07:23:27.729Z,2.58
2022-10-13T07:25:56.668Z,2.25
2022-10-13T07:28:24.735Z,3.13
2022-10-13T07:30:51.315Z,4.53
2022-10-13T07:33:18.060Z,2.22
2022-10-13T07:35:44.467Z,4.40
2022-10-13T07:38:11.548Z,4.15
2022-10-13T07:40:38.751Z,2.90
2022-10-13T07:43:05.481Z,3.83
2022-10-13T07:45:31.948Z,3.13
2022-10-13T07:47:58.507Z,5.00
2022-10-13T07:50:24.917Z,3.13
2022-10-13T07:52:51.373Z,3.78
2022-10-13T07:55:17.880Z,2.40
2022-10-13T07:57:44.344Z,3.33
2022-10-13T08:00:11.531Z,4.00
2022-10-13T08:02:38.051Z,2.65
2022-10-13T08:05:05.014Z,1.95
2022-10-13T08:07:31.503Z,3.22
2022-10-13T08:09:58.141Z,2.58
2022-10-13T08:12:24.576Z,3.03
2022-10-13T08:14:51.321Z,3.40
2022-10-13T08:17:18.036Z,2.70
2022-10-13T08:19:44.844Z,2.17
2022-10-13T08:22:11.968Z,3.70
2022-10-13T08:24:38.421Z,2.78
2022-10-13T08:27:04.859Z,2.42
2022-10-13T08:29:31.374Z,5.25
2022-10-13T08:31:57.874Z,3.70
2022-10-13T08:34:24.861Z,6.60
2022-10-13T08:36:54.497Z,5.95
2022-10-13T08:39:22.649Z,5.75
2022-10-13T08:41:49.791Z,3.40
2022-10-13T08:45:15.735Z,4.68
2022-10-13T08:47:27.135Z,5.47
2022-10-13T08:50:00.664Z,3.35
2022-10-13T08:52:41.866Z,7.85
2022-10-13T08:55:20.331Z,13.15
2022-10-13T08:57:47.015Z,5.78
2022-10-13T09:00:13.774Z,7.60
2022-10-13T09:02:43.114Z,5.85
2022-10-13T09:05:16.396Z,4.00
2022-10-13T09:07:45.980Z,5.80
2022-10-13T09:10:14.587Z,7.05
2022-10-13T09:12:41.065Z,5.47
2022-10-13T09:15:10.968Z,4.30
2022-10-13T09:17:40.848Z,6.10
2022-10-13T09:20:23.435Z,9.40
2022-10-13T09:23:02.331Z,4.03
2022-10-13T09:25:29.520Z,3.97
2022-10-13T09:27:59.833Z,7.35
2022-10-13T09:30:40.079Z,7.55
2022-10-13T09:33:07.289Z,4.57
2022-10-13T09:35:35.025Z,5.03
2022-10-13T09:38:06.777Z,6.25
2022-10-13T09:40:34.015Z,5.53
2022-10-13T09:43:02.394Z,5.00
2022-10-13T09:45:31.106Z,4.70
2022-10-13T09:48:02.488Z,3.35
2022-10-13T09:50:34.653Z,9.57
2022-10-13T09:53:29.819Z,6.47
2022-10-13T09:56:07.714Z,6.63
2022-10-13T09:58:37.650Z,6.00
2022-10-13T10:01:05.363Z,9.18
2022-10-13T10:03:35.613Z,7.72
2022-10-13T10:06:06.840Z,8.15
2022-10-13T10:09:02.209Z,5.40
2022-10-13T10:11:34.780Z,9.75
2022-10-13T10:14:14.523Z,3.92
2022-10-13T10:16:48.850Z,9.82
2022-10-13T10:19:24.841Z,8.70
2022-10-13T10:22:18.611Z,5.50
2022-10-13T10:25:14.400Z,5.82
2022-10-13T10:27:52.337Z,4.93
2022-10-13T10:30:20.727Z,8.48
2022-10-13T10:32:59.181Z,4.57
2022-10-13T10:35:37.381Z,5.75
2022-10-13T10:38:29.002Z,4.53
2022-10-13T10:41:12.905Z,4.97
2022-10-13T10:43:59.675Z,6.82
2022-10-13T10:46:31.931Z,8.00
2022-10-13T10:49:03.268Z,4.47
2022-10-13T10:51:33.135Z,3.33
2022-10-13T10:54:23.488Z,5.53
2022-10-13T10:57:01.696Z,8.70
2022-10-13T10:59:58.581Z,4.82
2022-10-13T11:02:47.086Z,8.02
2022-10-13T11:05:14.916Z,5.70
2022-10-13T11:07:45.421Z,3.47
2022-10-13T11:10:16.465Z,3.65
2022-10-13T11:12:45.670Z,2.58
2022-10-13T11:15:43.546Z,3.50
2022-10-13T11:18:47.813Z,4.32
2022-10-13T11:21:14.639Z,3.70
2022-10-13T11:23:47.076Z,4.05
2022-10-13T11:26:20.812Z,5.18
2022-10-13T11:28:47.958Z,7.50
2022-10-13T11:31:14.347Z,3.55
2022-10-13T11:33:40.757Z,3.50
2022-10-13T11:36:35.200Z,5.30
2022-10-13T11:39:10.877Z,4.40
2022-10-13T11:42:06.738Z,2.65
2022-10-13T11:44:56.837Z,5.80
2022-10-13T11:48:01.141Z,5.65
2022-10-13T11:50:36.742Z,2.88
2022-10-13T11:53:22.715Z,2.97
2022-10-13T11:55:53.912Z,6.38
2022-10-13T11:58:26.091Z,3.97
2022-10-13T12:01:16.397Z,4.10
2022-10-13T12:03:45.447Z,3.10
2022-10-13T12:06:34.236Z,4.25
2022-10-13T12:09:04.136Z,3.35
2022-10-13T12:11:36.969Z,5.38
2022-10-13T12:14:08.539Z,4.00
2022-10-13T12:16:34.952Z,3.47
2022-10-13T12:19:19.139Z,4.45
2022-10-13T12:21:56.681Z,5.60
2022-10-13T12:24:25.776Z,3.65
2022-10-13T12:26:52.845Z,3.30
2022-10-13T12:29:23.979Z,5.07
2022-10-13T12:31:51.717Z,3.92
2022-10-13T12:34:33.266Z,3.00
2022-10-13T12:37:33.907Z,6.72
2022-10-13T12:40:01.709Z,2.90
2022-10-13T12:42:34.166Z,4.38
2022-10-13T12:45:01.821Z,4.40
2022-10-13T12:48:00.816Z,3.28
2022-10-13T12:50:29.980Z,3.58
2022-10-13T12:53:05.745Z,3.33
2022-10-13T12:55:32.999Z,3.58
2022-10-13T12:58:00.383Z,4.57
2022-10-13T13:00:29.455Z,3.15
2022-10-13T13:03:01.891Z,3.60
2022-10-13T13:05:46.777Z,4.10
2022-10-13T13:08:29.346Z,3.38
2022-10-13T13:10:56.431Z,3.17
2022-10-13T13:13:24.079Z,5.20
2022-10-13T13:15:51.034Z,4.88
2022-10-13T13:18:26.493Z,2.85
2022-10-13T13:20:54.153Z,2.83
2022-10-13T13:23:22.198Z,3.88
2022-10-13T13:26:00.496Z,2.63
2022-10-13T13:28:32.070Z,3.58
2022-10-13T13:30:59.239Z,4.40
2022-10-13T13:33:25.706Z,3.42
2022-10-13T13:35:53.292Z,4.05
2022-10-13T13:38:20.110Z,3.20
2022-10-13T13:40:46.576Z,2.88
2022-10-13T13:43:12.980Z,3.72
2022-10-13T13:45:39.702Z,2.40
2022-10-13T13:48:06.267Z,4.05
2022-10-13T13:50:35.489Z,2.60
2022-10-13T13:53:02.436Z,2.85
2022-10-13T13:55:30.039Z,3.40
2022-10-13T13:57:57.319Z,4.57
2022-10-13T14:00:24.379Z,3.17
2022-10-13T14:02:51.329Z,2.80
2022-10-13T14:05:17.727Z,2.97
2022-10-13T14:07:44.218Z,4.00
2022-10-13T14:10:11.047Z,3.85
2022-10-13T14:12:38.205Z,2.45
2022-10-13T14:15:05.383Z,3.17
2022-10-13T14:17:31.828Z,3.20
2022-10-13T14:19:58.335Z,3.05
2022-10-13T14:22:24.993Z,3.42
2022-10-13T14:24:51.705Z,2.40
2022-10-13T14:27:18.252Z,3.70
2022-10-13T14:29:44.810Z,2.72
2022-10-13T14:32:11.494Z,3.55
2022-10-13T14:34:37.928Z,3.33
2022-10-13T14:37:04.602Z,3.17
2022-10-13T14:39:31.095Z,3.65
2022-10-13T14:41:57.650Z,2.75
2022-10-13T14:44:24.093Z,3.92
2022-10-13T14:46:50.646Z,2.85
2022-10-13T14:49:17.072Z,2.80
2022-10-13T14:51:43.723Z,2.70
2022-10-13T14:54:10.780Z,3.33
2022-10-13T14:56:37.425Z,2.83
2022-10-13T14:59:05.761Z,3.00
2022-10-13T15:01:33.491Z,2.83
2022-10-13T15:04:00.921Z,3.17
2022-10-13T15:06:27.503Z,3.33
2022-10-13T15:08:53.923Z,3.08
2022-10-13T15:11:21.750Z,3.17
2022-10-13T15:13:48.782Z,2.88
2022-10-13T15:16:21.095Z,3.55
2022-10-13T15:18:47.879Z,3.38
2022-10-13T15:21:15.689Z,3.53
2022-10-13T15:23:42.463Z,2.97
2022-10-13T15:26:11.131Z,2.53
2022-10-13T15:28:40.806Z,2.83
2022-10-13T15:31:07.584Z,2.83
2022-10-13T15:33:34.553Z,3.08
2022-10-13T15:36:01.253Z,2.83
2022-10-13T15:38:27.980Z,4.03
2022-10-13T15:41:01.688Z,3.35
2022-10-13T15:43:28.658Z,3.13
2022-10-13T15:46:06.716Z,3.58
2022-10-13T15:48:34.141Z,3.22
2022-10-13T15:51:00.911Z,2.80
2022-10-13T15:53:27.407Z,3.72
2022-10-13T15:55:53.885Z,2.38
2022-10-13T15:58:20.414Z,3.80
2022-10-13T16:00:46.986Z,2.85
2022-10-13T16:03:15.437Z,2.47
2022-10-13T16:05:43.288Z,2.80
2022-10-13T16:08:10.250Z,2.22
2022-10-13T16:10:41.363Z,2.50
2022-10-13T16:13:09.309Z,2.50
2022-10-13T16:15:35.932Z,2.83
2022-10-13T16:18:02.494Z,2.67
2022-10-13T16:20:34.255Z,2.17
2022-10-13T16:23:01.722Z,2.60
2022-10-13T16:25:29.312Z,2.72
2022-10-13T16:27:56.020Z,2.75
2022-10-13T16:30:22.492Z,2.40
2022-10-13T16:32:48.950Z,3.63
2022-10-13T16:35:18.344Z,2.83
2022-10-13T16:37:44.721Z,2.80
2022-10-13T16:40:11.308Z,3.08
2022-10-13T16:42:37.814Z,2.70
2022-10-13T16:45:05.022Z,2.42
2022-10-13T16:47:31.559Z,2.40
2022-10-13T16:49:57.987Z,4.40
2022-10-13T16:52:24.482Z,2.45
2022-10-13T16:54:50.977Z,4.20
2022-10-13T16:57:17.508Z,2.60
2022-10-13T16:59:44.120Z,2.35
2022-10-13T17:02:15.402Z,2.10
2022-10-13T17:04:42.996Z,3.10
2022-10-13T17:07:09.557Z,2.38
2022-10-13T17:09:36.017Z,2.72
2022-10-13T17:12:03.750Z,2.72
2022-10-13T17:14:30.340Z,2.63
2022-10-13T17:16:57.938Z,2.15
2022-10-13T17:19:25.214Z,2.25
2022-10-13T17:21:51.647Z,2.40
2022-10-13T17:24:18.717Z,2.83
2022-10-13T17:26:45.167Z,2.90
2022-10-13T17:29:11.669Z,2.20
2022-10-13T17:31:38.219Z,3.20
2022-10-13T17:34:06.103Z,2.85
2022-10-13T17:36:34.208Z,2.70
2022-10-13T17:39:06.529Z,3.58
2022-10-13T17:41:33.269Z,2.80
2022-10-13T17:43:59.750Z,2.88
2022-10-13T17:46:36.752Z,2.97
2022-10-13T17:49:05.425Z,2.13
2022-10-13T17:51:31.961Z,2.50
2022-10-13T17:53:59.713Z,2.08
2022-10-13T17:56:26.271Z,2.40
2022-10-13T17:58:52.990Z,2.30
2022-10-13T18:01:25.480Z,3.30
2022-10-13T18:03:56.338Z,3.05
2022-10-13T18:06:23.461Z,2.88
2022-10-13T18:08:52.981Z,2.55
2022-10-13T18:11:21.661Z,2.13
2022-10-13T18:13:48.983Z,2.42
2022-10-13T18:16:20.899Z,3.35
2022-10-13T18:18:50.005Z,2.13
2022-10-13T18:21:18.615Z,3.78
2022-10-13T18:23:45.233Z,4.60
2022-10-13T18:26:14.861Z,2.67
2022-10-13T18:28:43.617Z,3.13
2022-10-13T18:31:12.664Z,2.78
2022-10-13T18:33:39.836Z,2.45
2022-10-13T18:36:36.570Z,2.63
2022-10-13T18:39:07.730Z,2.17
2022-10-13T18:41:36.254Z,3.30
2022-10-13T18:44:03.960Z,2.47
2022-10-13T18:46:32.049Z,2.72
2022-10-13T18:48:58.524Z,3.05
2022-10-13T18:51:25.548Z,2.28
2022-10-13T18:53:52.226Z,2.47
2022-10-13T18:56:25.327Z,2.83
2022-10-13T18:58:58.482Z,2.70
2022-10-13T19:01:27.791Z,2.30
2022-10-13T19:03:54.778Z,2.25
2022-10-13T19:06:26.590Z,2.22
2022-10-13T19:09:19.560Z,2.05
2022-10-13T19:11:46.041Z,2.38
2022-10-13T19:14:13.338Z,1.88
2022-10-13T19:16:42.453Z,2.75
2022-10-13T19:19:09.437Z,3.00
2022-10-13T19:21:37.486Z,2.88
2022-10-13T19:24:04.480Z,3.25
2022-10-13T19:26:33.661Z,2.55
2022-10-13T19:29:03.972Z,1.90
2022-10-13T19:31:32.286Z,2.50
2022-10-13T19:33:59.642Z,3.30
2022-10-13T19:36:39.012Z,2.78
2022-10-13T19:39:11.559Z,2.58
2022-10-13T19:44:04.859Z,2.33
2022-10-13T19:46:31.786Z,3.42
2022-10-13T19:48:58.298Z,2.03
2022-10-13T19:51:24.775Z,2.28
2022-10-13T19:53:51.204Z,2.22
2022-10-13T19:56:26.249Z,2.53
2022-10-13T19:58:53.324Z,2.78
2022-10-13T20:01:20.379Z,2.65
2022-10-13T20:03:47.752Z,3.22
2022-10-13T20:06:14.574Z,3.38
2022-10-13T20:08:41.116Z,2.45
2022-10-13T20:11:12.196Z,2.47
2022-10-13T20:13:38.661Z,2.45
2022-10-13T20:16:10.898Z,2.42
2022-10-13T20:18:37.913Z,2.30
2022-10-13T20:21:05.680Z,2.90
2022-10-13T20:23:32.802Z,2.30
2022-10-13T20:26:10.752Z,2.17
2022-10-13T20:28:43.007Z,2.53
2022-10-13T20:31:11.457Z,2.60
2022-10-13T20:33:40.242Z,2.55
2022-10-13T20:36:09.235Z,3.38
2022-10-13T20:38:36.104Z,3.10
2022-10-13T20:41:17.830Z,2.42
2022-10-13T20:43:44.955Z,2.65
2022-10-13T20:46:12.003Z,3.22
2022-10-13T20:49:08.921Z,2.55
2022-10-13T20:51:27.525Z,2.70
2022-10-13T20:53:54.331Z,2.33
2022-10-13T20:56:23.120Z,2.35
2022-10-13T20:58:50.040Z,2.25
2022-10-13T21:01:18.720Z,2.10
2022-10-13T21:03:45.391Z,2.40
2022-10-13T21:06:13.992Z,2.47
2022-10-13T21:08:40.949Z,4.25
2022-10-13T21:11:09.830Z,2.50
2022-10-13T21:13:37.920Z,2.22
2022-10-13T21:16:16.544Z,2.85
2022-10-13T21:18:50.261Z,3.17
2022-10-13T21:21:19.142Z,2.45
2022-10-13T21:23:48.954Z,2.90
2022-10-13T21:26:21.140Z,2.50
2022-10-13T21:31:16.424Z,2.80
2022-10-13T21:33:43.293Z,2.67
2022-10-13T21:36:15.210Z,2.58
2022-10-13T21:38:42.626Z,3.60
2022-10-13T21:41:11.818Z,3.47
2022-10-13T21:43:38.539Z,2.15
2022-10-13T21:46:17.698Z,2.50
2022-10-13T21:48:45.797Z,2.35
2022-10-13T21:51:16.590Z,2.83
2022-10-13T21:53:43.345Z,2.35
2022-10-13T21:56:11.785Z,2.45
2022-10-13T21:58:38.847Z,3.05
2022-10-13T22:01:06.541Z,2.22
2022-10-13T22:03:33.509Z,2.28
2022-10-13T22:06:04.756Z,2.13
2022-10-13T22:08:38.242Z,2.92
2022-10-13T22:11:06.488Z,2.28
2022-10-13T22:13:33.280Z,2.30
2022-10-13T22:16:17.791Z,3.05
2022-10-13T22:18:44.493Z,2.65
2022-10-13T22:21:17.494Z,2.35
2022-10-13T22:23:44.522Z,2.20
2022-10-13T22:26:11.219Z,3.00
2022-10-13T22:28:38.365Z,2.67
2022-10-13T22:31:06.230Z,2.42
2022-10-13T22:33:35.113Z,2.38
2022-10-13T22:36:07.361Z,2.17
2022-10-13T22:38:33.780Z,2.70
2022-10-13T22:41:07.512Z,2.15
2022-10-13T22:43:34.586Z,3.38
2022-10-13T22:46:02.016Z,2.40
2022-10-13T22:48:28.755Z,2.55
2022-10-13T22:50:55.355Z,2.42
2022-10-13T22:53:21.766Z,2.35
2022-10-13T22:55:48.205Z,2.65
2022-10-13T22:58:14.616Z,2.45
2022-10-13T23:00:41.109Z,2.50
2022-10-13T23:03:07.677Z,2.50
2022-10-13T23:05:34.301Z,2.05
2022-10-13T23:08:00.794Z,2.40
2022-10-13T23:10:27.192Z,2.20
2022-10-13T23:12:53.659Z,2.80
2022-10-13T23:15:20.051Z,2.30
2022-10-13T23:17:46.500Z,4.15
2022-10-13T23:20:12.948Z,2.17
2022-10-13T23:22:39.449Z,2.55
2022-10-13T23:25:06.242Z,2.30
2022-10-13T23:27:32.655Z,2.17
2022-10-13T23:29:59.069Z,2.58
2022-10-13T23:32:25.481Z,2.45
2022-10-13T23:34:51.863Z,2.75
2022-10-13T23:37:18.597Z,2.30
2022-10-13T23:39:45.193Z,2.40
2022-10-13T23:42:11.621Z,2.28
2022-10-13T23:44:38.032Z,2.30
2022-10-13T23:47:05.208Z,2.38
2022-10-13T23:49:31.740Z,2.53
2022-10-13T23:51:58.201Z,2.60
2022-10-13T23:54:24.672Z,2.38
2022-10-13T23:56:51.127Z,2.47
2022-10-13T23:59:17.520Z,2.30
